createdAt,value
2023-04-21T00:00:40.624Z,26.80
2023-04-21T00:03:28.470Z,26.63
2023-04-21T00:06:22.221Z,24.97
2023-04-21T00:09:08.943Z,30.50
2023-04-21T00:11:55.464Z,27.80
2023-04-21T00:14:42.064Z,24.47
2023-04-21T00:17:29.975Z,23.60
2023-04-21T00:20:16.264Z,25.77
2023-04-21T00:23:03.623Z,23.73
2023-04-21T00:25:50.111Z,24.00
2023-04-21T00:28:36.625Z,26.13
2023-04-21T00:31:23.236Z,26.90
2023-04-21T00:34:11.237Z,29.33
2023-04-21T00:36:57.706Z,31.20
2023-04-21T00:39:44.204Z,28.40
2023-04-21T00:42:30.659Z,28.57
2023-04-21T00:45:17.122Z,28.73
2023-04-21T00:48:03.545Z,26.57
2023-04-21T00:50:51.349Z,28.37
2023-04-21T00:53:38.026Z,25.70
2023-04-21T00:56:24.835Z,27.47
2023-04-21T00:59:11.365Z,22.80
2023-04-21T01:01:58.061Z,22.63
2023-04-21T01:04:45.687Z,23.97
2023-04-21T01:07:33.993Z,24.47
2023-04-21T01:10:20.694Z,24.57
2023-04-21T01:13:07.450Z,29.17
2023-04-21T01:15:53.843Z,27.50
2023-04-21T01:18:40.137Z,20.20
2023-04-21T01:21:28.709Z,18.93
2023-04-21T01:24:16.531Z,17.63
2023-04-21T01:27:03.498Z,27.17
2023-04-21T01:29:52.530Z,24.80
2023-04-21T01:32:38.952Z,23.03
2023-04-21T01:35:25.775Z,24.13
2023-04-21T01:38:12.378Z,23.57
2023-04-21T01:41:00.288Z,27.10
2023-04-21T01:43:46.818Z,20.13
2023-04-21T01:46:33.323Z,17.97
2023-04-21T01:49:20.367Z,23.67
2023-04-21T01:52:07.194Z,19.20
2023-04-21T01:54:53.438Z,22.63
2023-04-21T01:57:41.385Z,26.60
2023-04-21T02:00:28.481Z,20.30
2023-04-21T02:03:14.901Z,22.83
2023-04-21T02:06:01.607Z,18.53
2023-04-21T02:08:48.278Z,20.17
2023-04-21T02:11:34.724Z,17.23
2023-04-21T02:14:22.848Z,19.17
2023-04-21T02:17:09.549Z,19.43
2023-04-21T02:19:55.906Z,21.10
2023-04-21T02:22:42.355Z,16.53
2023-04-21T02:25:29.804Z,22.03
2023-04-21T02:28:16.540Z,18.87
2023-04-21T02:31:04.755Z,19.03
2023-04-21T02:33:51.321Z,16.73
2023-04-21T02:36:37.759Z,24.20
2023-04-21T02:39:24.119Z,20.17
2023-04-21T02:42:10.535Z,20.67
2023-04-21T02:44:56.902Z,20.17
2023-04-21T02:47:44.626Z,21.03
2023-04-21T02:50:31.054Z,20.07
2023-04-21T02:53:17.717Z,24.97
2023-04-21T02:56:05.085Z,24.23
2023-04-21T02:58:51.851Z,22.30
2023-04-21T03:01:38.548Z,20.03
2023-04-21T03:04:26.666Z,19.83
2023-04-21T03:07:14.266Z,25.00
2023-04-21T03:10:00.879Z,25.17
2023-04-21T03:12:47.196Z,20.67
2023-04-21T03:15:34.046Z,22.33
2023-04-21T03:18:20.807Z,21.40
2023-04-21T03:21:08.562Z,14.43
2023-04-21T03:23:55.089Z,21.57
2023-04-21T03:26:41.517Z,20.43
2023-04-21T03:29:27.934Z,17.00
2023-04-21T03:32:14.376Z,19.33
2023-04-21T03:35:00.961Z,19.17
2023-04-21T03:37:49.604Z,25.43
2023-04-21T03:40:36.293Z,21.20
2023-04-21T03:43:22.790Z,21.33
2023-04-21T03:46:09.342Z,20.57
2023-04-21T03:48:55.908Z,21.77
2023-04-21T03:51:42.360Z,14.83
2023-04-21T03:54:30.748Z,23.87
2023-04-21T03:57:17.931Z,21.30
2023-04-21T04:00:05.883Z,23.80
2023-04-21T04:02:52.513Z,20.97
2023-04-21T04:05:39.074Z,25.37
2023-04-21T04:08:25.839Z,18.97
2023-04-21T04:11:13.692Z,21.57
2023-04-21T04:14:00.403Z,19.77
2023-04-21T04:16:46.810Z,21.03
2023-04-21T04:19:33.467Z,21.33
2023-04-21T04:22:19.768Z,16.77
2023-04-21T04:25:07.425Z,23.27
2023-04-21T04:27:55.581Z,19.00
2023-04-21T04:30:42.688Z,24.73
2023-04-21T04:33:29.464Z,26.47
2023-04-21T04:36:17.834Z,25.90
2023-04-21T04:39:04.447Z,22.70
2023-04-21T04:41:52.625Z,19.73
2023-04-21T04:44:41.499Z,20.07
2023-04-21T04:47:28.037Z,21.30
2023-04-21T04:50:14.499Z,23.20
2023-04-21T04:53:00.842Z,21.37
2023-04-21T04:55:47.635Z,19.10
2023-04-21T04:58:34.527Z,14.77
2023-04-21T05:01:22.386Z,20.13
2023-04-21T05:04:09.445Z,22.00
2023-04-21T05:06:56.058Z,15.63
2023-04-21T05:09:42.414Z,18.20
2023-04-21T05:12:28.856Z,25.53
2023-04-21T05:15:15.481Z,21.90
2023-04-21T05:18:03.266Z,18.83
2023-04-21T05:20:49.701Z,23.03
2023-04-21T05:23:36.464Z,18.67
2023-04-21T05:26:22.896Z,16.43
2023-04-21T05:29:09.592Z,18.73
2023-04-21T05:31:56.122Z,14.73
2023-04-21T05:34:43.720Z,16.90
2023-04-21T05:37:30.111Z,20.03
2023-04-21T05:40:16.683Z,15.10
2023-04-21T05:43:03.053Z,14.27
2023-04-21T05:45:49.565Z,21.40
2023-04-21T05:48:36.109Z,18.43
2023-04-21T05:51:23.987Z,16.70
2023-04-21T05:54:10.348Z,21.00
2023-04-21T05:56:56.895Z,16.33
2023-04-21T05:59:43.741Z,21.48
2023-04-21T06:02:30.116Z,16.77
2023-04-21T06:05:17.074Z,15.68
2023-04-21T06:08:04.638Z,14.98
2023-04-21T06:10:51.178Z,17.85
2023-04-21T06:13:39.456Z,18.73
2023-04-21T06:16:27.871Z,17.10
2023-04-21T06:19:14.304Z,16.25
2023-04-21T06:22:00.570Z,18.50
2023-04-21T06:24:48.696Z,14.65
2023-04-21T06:27:35.028Z,17.67
2023-04-21T06:30:21.435Z,13.88
2023-04-21T06:33:07.898Z,17.58
2023-04-21T06:35:54.247Z,19.92
2023-04-21T06:38:43.121Z,19.48
2023-04-21T06:41:31.115Z,23.60
2023-04-21T06:44:17.556Z,13.88
2023-04-21T06:47:04.418Z,19.02
2023-04-21T06:49:50.807Z,17.92
2023-04-21T06:52:37.428Z,18.05
2023-04-21T06:55:24.057Z,23.15
2023-04-21T06:58:12.292Z,18.42
2023-04-21T07:00:59.006Z,19.65
2023-04-21T07:03:46.112Z,12.80
2023-04-21T07:06:32.959Z,24.77
2023-04-21T07:09:19.790Z,17.50
2023-04-21T07:12:06.707Z,16.73
2023-04-21T07:14:54.718Z,18.77
2023-04-21T07:17:41.364Z,22.42
2023-04-21T07:20:27.675Z,16.20
2023-04-21T07:23:14.606Z,12.80
2023-04-21T07:26:01.558Z,18.20
2023-04-21T07:28:49.633Z,18.88
2023-04-21T07:31:37.492Z,19.60
2023-04-21T07:34:23.960Z,26.80
2023-04-21T07:37:10.347Z,17.90
2023-04-21T07:39:56.638Z,22.02
2023-04-21T07:42:43.145Z,17.25
2023-04-21T07:45:29.630Z,16.63
2023-04-21T07:48:17.670Z,12.50
2023-04-21T07:51:04.051Z,14.65
2023-04-21T07:53:50.487Z,15.80
2023-04-21T07:56:36.771Z,15.00
2023-04-21T07:59:23.310Z,15.20
2023-04-21T08:02:09.759Z,22.98
2023-04-21T08:04:57.642Z,17.95
2023-04-21T08:07:44.352Z,15.23
2023-04-21T08:10:30.779Z,15.95
2023-04-21T08:13:17.179Z,18.35
2023-04-21T08:16:03.542Z,15.18
2023-04-21T08:18:50.019Z,17.02
2023-04-21T08:21:38.081Z,17.27
2023-04-21T08:24:24.414Z,17.05
2023-04-21T08:27:10.936Z,14.10
2023-04-21T08:29:57.376Z,16.50
2023-04-21T08:32:44.239Z,14.27
2023-04-21T08:35:31.114Z,14.20
2023-04-21T08:38:18.849Z,15.10
2023-04-21T08:41:05.872Z,19.77
2023-04-21T08:43:52.738Z,13.55
2023-04-21T08:46:40.066Z,17.27
2023-04-21T08:49:30.829Z,20.95
2023-04-21T08:52:17.672Z,12.93
2023-04-21T08:55:07.848Z,17.40
2023-04-21T08:57:54.676Z,14.82
2023-04-21T09:00:41.889Z,14.65
2023-04-21T09:03:29.745Z,11.52
2023-04-21T09:06:16.908Z,14.93
2023-04-21T09:09:05.519Z,16.80
2023-04-21T09:11:58.338Z,16.65
2023-04-21T09:14:45.191Z,20.05
2023-04-21T09:17:33.713Z,13.15
2023-04-21T09:20:23.084Z,14.70
2023-04-21T09:23:09.696Z,13.75
2023-04-21T09:25:56.399Z,12.95
2023-04-21T09:28:45.426Z,15.23
2023-04-21T09:31:37.198Z,12.82
2023-04-21T09:34:25.676Z,11.77
2023-04-21T09:37:18.182Z,23.55
2023-04-21T09:40:06.565Z,18.15
2023-04-21T09:42:53.455Z,11.43
2023-04-21T09:45:41.992Z,14.05
2023-04-21T09:48:33.170Z,12.65
2023-04-21T09:51:32.834Z,11.95
2023-04-21T09:54:32.214Z,15.40
2023-04-21T09:57:24.147Z,9.30
2023-04-21T10:00:13.485Z,12.38
2023-04-21T10:03:05.453Z,11.95
2023-04-21T10:05:52.351Z,13.43
2023-04-21T10:08:39.017Z,8.30
2023-04-21T10:11:26.032Z,10.00
2023-04-21T10:14:12.624Z,12.55
2023-04-21T10:17:04.318Z,13.98
2023-04-21T10:19:53.255Z,11.40
2023-04-21T10:22:39.723Z,8.95
2023-04-21T10:25:30.949Z,11.95
2023-04-21T10:28:19.464Z,12.60
2023-04-21T10:31:19.914Z,9.80
2023-04-21T10:34:36.678Z,12.05
2023-04-21T10:37:24.470Z,9.50
2023-04-21T10:40:44.587Z,10.65
2023-04-21T10:43:47.504Z,12.23
2023-04-21T10:46:37.198Z,11.73
2023-04-21T10:49:25.109Z,10.98
2023-04-21T10:52:12.370Z,9.63
2023-04-21T10:55:12.608Z,11.07
2023-04-21T10:58:02.390Z,17.40
2023-04-21T11:00:54.741Z,6.75
2023-04-21T11:03:41.831Z,6.97
2023-04-21T11:06:28.561Z,9.70
2023-04-21T11:09:17.611Z,13.98
2023-04-21T11:12:07.860Z,7.03
2023-04-21T11:14:54.582Z,9.68
2023-04-21T11:17:43.319Z,10.30
2023-04-21T11:20:29.873Z,8.45
2023-04-21T11:23:18.905Z,7.75
2023-04-21T11:26:05.552Z,12.63
2023-04-21T11:28:53.605Z,9.73
2023-04-21T11:31:41.743Z,8.05
2023-04-21T11:34:28.533Z,8.90
2023-04-21T11:37:17.726Z,7.13
2023-04-21T11:40:06.166Z,6.03
2023-04-21T11:42:52.582Z,8.20
2023-04-21T11:45:42.257Z,8.85
2023-04-21T11:48:31.275Z,8.77
2023-04-21T11:51:22.042Z,10.90
2023-04-21T11:54:11.594Z,13.95
2023-04-21T11:56:59.105Z,10.15
2023-04-21T11:59:47.923Z,10.02
2023-04-21T12:02:36.012Z,6.20
2023-04-21T12:05:23.421Z,6.93
2023-04-21T12:08:16.504Z,11.70
2023-04-21T12:11:03.983Z,5.45
2023-04-21T12:13:50.829Z,8.20
2023-04-21T12:16:38.971Z,11.13
2023-04-21T12:19:36.696Z,7.60
2023-04-21T12:22:23.625Z,7.45
2023-04-21T12:25:10.684Z,9.90
2023-04-21T12:27:59.728Z,9.02
2023-04-21T12:30:46.259Z,9.55
2023-04-21T12:33:32.986Z,6.72
2023-04-21T12:36:21.167Z,7.15
2023-04-21T12:39:07.843Z,11.57
2023-04-21T12:41:54.233Z,9.13
2023-04-21T12:44:41.019Z,7.38
2023-04-21T12:47:27.656Z,9.70
2023-04-21T12:50:14.365Z,7.90
2023-04-21T12:53:02.190Z,6.30
2023-04-21T12:56:01.038Z,7.63
2023-04-21T12:58:50.725Z,6.80
2023-04-21T13:01:37.387Z,5.75
2023-04-21T13:04:23.867Z,8.80
2023-04-21T13:07:10.509Z,9.02
2023-04-21T13:09:58.340Z,9.48
2023-04-21T13:12:44.731Z,10.27
2023-04-21T13:15:31.327Z,9.65
2023-04-21T13:18:18.215Z,6.95
2023-04-21T13:21:04.675Z,7.00
2023-04-21T13:23:51.045Z,6.50
2023-04-21T13:26:38.739Z,7.78
2023-04-21T13:29:29.290Z,11.25
2023-04-21T13:32:15.796Z,9.40
2023-04-21T13:35:02.219Z,6.60
2023-04-21T13:37:49.268Z,13.13
2023-04-21T13:40:35.756Z,7.22
2023-04-21T13:43:23.717Z,7.20
2023-04-21T13:46:10.476Z,11.30
2023-04-21T13:48:57.103Z,9.13
2023-04-21T13:51:43.895Z,10.73
2023-04-21T13:54:30.480Z,9.70
2023-04-21T13:57:17.297Z,14.65
2023-04-21T14:00:06.901Z,9.35
2023-04-21T14:02:53.522Z,9.57
2023-04-21T14:05:41.034Z,6.72
2023-04-21T14:08:27.928Z,4.95
2023-04-21T14:11:14.256Z,17.27
2023-04-21T14:14:09.521Z,11.43
2023-04-21T14:16:58.297Z,5.00
2023-04-21T14:19:47.313Z,12.20
2023-04-21T14:22:33.625Z,7.55
2023-04-21T14:25:20.146Z,7.47
2023-04-21T14:28:08.387Z,7.70
2023-04-21T14:30:55.214Z,7.82
2023-04-21T14:33:42.946Z,6.93
2023-04-21T14:36:29.530Z,8.38
2023-04-21T14:39:16.143Z,6.45
2023-04-21T14:42:02.942Z,9.30
2023-04-21T14:44:49.386Z,7.03
2023-04-21T14:47:36.031Z,6.93
2023-04-21T14:50:23.972Z,7.80
2023-04-21T14:53:10.933Z,11.07
2023-04-21T14:55:57.531Z,5.85
2023-04-21T14:58:43.867Z,7.00
2023-04-21T15:01:30.468Z,10.50
2023-04-21T15:04:17.288Z,7.05
2023-04-21T15:07:05.242Z,6.97
2023-04-21T15:09:51.936Z,9.68
2023-04-21T15:12:39.544Z,10.73
2023-04-21T15:15:26.105Z,5.97
2023-04-21T15:18:12.433Z,7.45
2023-04-21T15:20:58.902Z,8.68
2023-04-21T15:23:46.665Z,6.60
2023-04-21T15:26:33.088Z,14.20
2023-04-21T15:29:19.622Z,5.88
2023-04-21T15:32:06.083Z,5.13
2023-04-21T15:34:52.588Z,5.28
2023-04-21T15:37:39.126Z,9.00
2023-04-21T15:40:26.996Z,23.30
2023-04-21T15:43:13.593Z,10.13
2023-04-21T15:45:59.974Z,6.30
2023-04-21T15:48:46.799Z,9.75
2023-04-21T15:51:36.043Z,6.68
2023-04-21T15:54:22.744Z,6.10
2023-04-21T15:57:10.986Z,6.10
2023-04-21T15:59:57.586Z,7.28
2023-04-21T16:02:44.537Z,5.78
2023-04-21T16:05:31.331Z,13.20
2023-04-21T16:08:18.249Z,10.27
2023-04-21T16:11:04.568Z,5.68
2023-04-21T16:13:52.455Z,17.95
2023-04-21T16:16:39.059Z,8.73
2023-04-21T16:19:25.838Z,8.15
2023-04-21T16:22:12.559Z,10.38
2023-04-21T16:25:00.516Z,8.70
2023-04-21T16:27:47.417Z,7.88
2023-04-21T16:30:35.963Z,5.90
2023-04-21T16:33:22.538Z,9.88
2023-04-21T16:36:09.171Z,5.15
2023-04-21T16:38:55.937Z,9.57
2023-04-21T16:41:42.627Z,7.97
2023-04-21T16:44:29.006Z,10.43
2023-04-21T16:47:16.747Z,8.95
2023-04-21T16:50:03.200Z,7.60
2023-04-21T16:52:49.896Z,7.05
2023-04-21T16:55:36.138Z,9.27
2023-04-21T16:58:24.554Z,6.40
2023-04-21T17:01:11.516Z,10.77
2023-04-21T17:03:59.236Z,8.90
2023-04-21T17:06:46.106Z,9.32
2023-04-21T17:09:33.263Z,12.02
2023-04-21T17:12:20.012Z,9.02
2023-04-21T17:15:07.431Z,4.75
2023-04-21T17:17:55.185Z,12.75
2023-04-21T17:20:42.890Z,9.68
2023-04-21T17:23:29.274Z,11.80
2023-04-21T17:26:15.538Z,5.25
2023-04-21T17:29:02.093Z,9.52
2023-04-21T17:31:48.407Z,6.13
2023-04-21T17:34:35.149Z,9.50
2023-04-21T17:37:23.413Z,8.32
2023-04-21T17:40:11.633Z,8.43
2023-04-21T17:42:58.441Z,6.55
2023-04-21T17:45:46.456Z,11.90
2023-04-21T17:48:32.776Z,9.45
2023-04-21T17:51:19.378Z,6.47
2023-04-21T17:54:08.235Z,6.93
2023-04-21T17:56:55.172Z,7.18
2023-04-21T17:59:42.102Z,10.95
2023-04-21T18:02:28.501Z,8.50
2023-04-21T18:05:15.792Z,9.55
2023-04-21T18:08:03.008Z,6.75
2023-04-21T18:10:50.815Z,7.45
2023-04-21T18:13:37.564Z,7.55
2023-04-21T18:16:24.268Z,15.00
2023-04-21T18:19:11.292Z,12.50
2023-04-21T18:21:57.948Z,8.55
2023-04-21T18:24:44.696Z,11.15
2023-04-21T18:27:32.876Z,10.18
2023-04-21T18:30:19.456Z,10.07
2023-04-21T18:33:06.222Z,9.85
2023-04-21T18:35:52.981Z,11.05
2023-04-21T18:38:39.498Z,8.98
2023-04-21T18:41:26.071Z,10.85
2023-04-21T18:44:13.846Z,7.18
2023-04-21T18:47:00.245Z,7.30
2023-04-21T18:49:47.102Z,9.88
2023-04-21T18:52:33.755Z,12.48
2023-04-21T18:55:20.472Z,12.05
2023-04-21T18:58:07.393Z,8.70
2023-04-21T19:00:55.994Z,12.27
2023-04-21T19:03:43.294Z,16.23
2023-04-21T19:06:29.654Z,9.05
2023-04-21T19:09:18.103Z,11.00
2023-04-21T19:12:04.935Z,9.73
2023-04-21T19:14:51.983Z,11.40
2023-04-21T19:17:41.104Z,11.13
2023-04-21T19:20:28.063Z,12.50
2023-04-21T19:23:16.278Z,10.18
2023-04-21T19:26:05.007Z,9.15
2023-04-21T19:28:51.541Z,13.15
2023-04-21T19:31:37.874Z,7.68
2023-04-21T19:34:25.668Z,9.80
2023-04-21T19:37:12.397Z,10.57
2023-04-21T19:39:58.817Z,10.75
2023-04-21T19:42:45.157Z,12.50
2023-04-21T19:45:31.558Z,12.15
2023-04-21T19:48:18.035Z,10.23
2023-04-21T19:51:07.351Z,10.60
2023-04-21T19:54:07.268Z,9.07
2023-04-21T19:56:57.011Z,9.57
2023-04-21T19:59:43.266Z,11.23
2023-04-21T20:02:29.819Z,10.82
2023-04-21T20:05:16.514Z,10.25
2023-04-21T20:08:04.284Z,7.50
2023-04-21T20:10:50.954Z,14.98
2023-04-21T20:13:37.481Z,11.25
2023-04-21T20:16:26.213Z,9.77
2023-04-21T20:19:12.900Z,10.27
2023-04-21T20:21:59.541Z,10.07
2023-04-21T20:24:47.947Z,10.63
2023-04-21T20:27:34.881Z,13.65
2023-04-21T20:30:21.988Z,14.77
2023-04-21T20:33:09.860Z,14.35
2023-04-21T20:35:56.944Z,10.68
2023-04-21T20:38:46.356Z,12.63
2023-04-21T20:41:34.496Z,11.88
2023-04-21T20:44:24.308Z,14.30
2023-04-21T20:47:11.901Z,12.13
2023-04-21T20:49:59.041Z,12.52
2023-04-21T20:52:45.466Z,14.23
2023-04-21T20:55:31.966Z,10.07
2023-04-21T20:58:19.630Z,9.82
2023-04-21T21:01:06.351Z,13.73
2023-04-21T21:03:53.177Z,18.55
2023-04-21T21:06:40.089Z,34.93
2023-04-21T21:09:26.725Z,14.10
2023-04-21T21:12:13.244Z,13.37
2023-04-21T21:15:01.103Z,12.37
2023-04-21T21:17:47.564Z,13.67
2023-04-21T21:20:33.843Z,12.33
2023-04-21T21:23:20.185Z,16.80
2023-04-21T21:26:06.708Z,12.93
2023-04-21T21:28:53.388Z,14.03
2023-04-21T21:31:41.098Z,12.00
2023-04-21T21:34:28.084Z,12.93
2023-04-21T21:37:14.613Z,13.73
2023-04-21T21:40:00.973Z,13.97
2023-04-21T21:42:47.648Z,12.07
2023-04-21T21:45:34.253Z,12.20
2023-04-21T21:48:22.004Z,22.57
2023-04-21T21:51:08.261Z,12.00
2023-04-21T21:53:54.589Z,14.23
2023-04-21T21:56:41.979Z,14.20
2023-04-21T21:59:28.476Z,11.07
2023-04-21T22:02:15.045Z,13.13
2023-04-21T22:05:04.341Z,15.00
2023-04-21T22:07:51.060Z,15.57
2023-04-21T22:10:37.385Z,15.17
2023-04-21T22:13:24.113Z,16.47
2023-04-21T22:16:10.403Z,15.00
2023-04-21T22:18:57.022Z,12.50
2023-04-21T22:21:44.918Z,15.67
2023-04-21T22:24:31.483Z,13.63
2023-04-21T22:27:17.870Z,13.63
2023-04-21T22:30:04.689Z,12.20
2023-04-21T22:32:51.251Z,12.27
2023-04-21T22:35:37.649Z,12.23
2023-04-21T22:38:25.315Z,15.20
2023-04-21T22:41:13.714Z,13.70
2023-04-21T22:44:00.156Z,14.33
2023-04-21T22:46:46.801Z,14.20
2023-04-21T22:49:33.624Z,15.87
2023-04-21T22:52:19.966Z,15.03
2023-04-21T22:55:09.130Z,17.30
2023-04-21T22:57:55.759Z,14.37
2023-04-21T23:00:42.216Z,15.40
2023-04-21T23:03:30.264Z,17.20
2023-04-21T23:06:17.511Z,16.57
2023-04-21T23:09:04.117Z,13.50
2023-04-21T23:11:52.241Z,13.70
2023-04-21T23:14:38.917Z,15.70
2023-04-21T23:17:25.345Z,15.90
2023-04-21T23:20:12.510Z,14.73
2023-04-21T23:22:59.212Z,19.53
2023-04-21T23:25:45.597Z,15.67
2023-04-21T23:28:33.499Z,18.93
2023-04-21T23:31:19.918Z,15.47
2023-04-21T23:34:06.358Z,16.83
2023-04-21T23:36:52.967Z,17.67
2023-04-21T23:39:39.917Z,22.47
2023-04-21T23:42:26.384Z,16.93
2023-04-21T23:45:14.652Z,13.43
2023-04-21T23:48:01.457Z,14.97
2023-04-21T23:50:47.972Z,19.03
2023-04-21T23:53:34.841Z,17.60
2023-04-21T23:56:21.328Z,17.37
2023-04-21T23:59:08.006Z,15.70
